Wetterdaten: Juli 2012
Datum Temp Feuchte Luftdruck Regen Wind Richtung Sonnenschein UV Solar Windben
01.07.2012 15,5 C 82 % 1016,0 hPa 0,6 l/m 0,3 km/h W-NW 2,67 h 2,4 UV-I 230 W/m 3,6 km/h
02.07.2012 13,8 C 89 % 1019,5 hPa 0,4 l/m 1,6 km/h SO 2,58 h 1,9 UV-I 195 W/m 4,8 km/h
03.07.2012 17,1 C 84 % 1017,0 hPa 0,0 l/m 0,3 km/h W-NW 5,25 h 2,6 UV-I 295 W/m 2,8 km/h
04.07.2012 20,5 C 75 % 1013,2 hPa 0,0 l/m 0,1 km/h SO 8,42 h 2,8 UV-I 334 W/m 2,4 km/h
05.07.2012 20,4 C 87 % 1009,7 hPa 0,0 l/m 1,4 km/h SO 5,08 h 2,3 UV-I 273 W/m 6,9 km/h
06.07.2012 18,4 C 89 % 1010,4 hPa 0,4 l/m 2,5 km/h S 5,67 h 2,4 UV-I 272 W/m 5,2 km/h
07.07.2012 16,6 C 87 % 1011,8 hPa 3,2 l/m 0,0 km/h S-SO 6,92 h 2,5 UV-I 297 W/m 0,0 km/h
08.07.2012 16,8 C 85 % 1007,1 hPa 5,0 l/m 7,4 km/h S 2,33 h 1,9 UV-I 190 W/m 17,7 km/h
09.07.2012 16,5 C 78 % 1011,1 hPa 0,2 l/m 2,3 km/h S 3,00 h 2,3 UV-I 245 W/m 7,2 km/h
10.07.2012 15,8 C 88 % 1011,2 hPa 0,8 l/m 0,0 km/h S-SW 1,92 h 2,2 UV-I 219 W/m 0,0 km/h
11.07.2012 13,0 C 89 % 1011,0 hPa 2,8 l/m 2,1 km/h S 3,42 h 2,0 UV-I 213 W/m 7,6 km/h
12.07.2012 11,5 C 84 % 1012,7 hPa 3,2 l/m 1,1 km/h S 2,58 h 2,0 UV-I 221 W/m 7,6 km/h
13.07.2012 14,1 C 91 % 1004,1 hPa 10,8 l/m 0,6 km/h S-SW 0,92 h 1,7 UV-I 164 W/m 5,3 km/h
14.07.2012 12,4 C 96 % 1004,6 hPa 20,4 l/m 1,1 km/h S-SW 1,25 h 1,7 UV-I 151 W/m 6,4 km/h
15.07.2012 13,7 C 88 % 1013,8 hPa 4,2 l/m 0,6 km/h S-SW 3,92 h 2,6 UV-I 291 W/m 7,2 km/h
16.07.2012 12,8 C 90 % 1020,3 hPa 13,6 l/m 4,7 km/h S-SW 1,58 h 2,1 UV-I 192 W/m 14,5 km/h
17.07.2012 15,8 C 90 % 1018,9 hPa 22,4 l/m 4,4 km/h NW 2,00 h 2,5 UV-I 218 W/m 13,7 km/h
18.07.2012 17,5 C 81 % 1011,3 hPa 2,2 l/m 6,5 km/h S 2,83 h 3,1 UV-I 228 W/m 24,5 km/h
19.07.2012 14,9 C 86 % 1007,3 hPa 10,6 l/m 4,6 km/h S-SW 3,50 h 2,6 UV-I 264 W/m 19,7 km/h
20.07.2012 14,5 C 79 % 1014,5 hPa 0,0 l/m 0,6 km/h W 7,17 h 3,0 UV-I 363 W/m 6,8 km/h
21.07.2012 11,8 C 85 % 1021,7 hPa 0,0 l/m 0,4 km/h NW 2,00 h 1,8 UV-I 204 W/m 2,0 km/h
22.07.2012 12,3 C 83 % 1027,8 hPa 0,0 l/m 0,0 km/h W-NW 6,75 h 2,6 UV-I 308 W/m 0,0 km/h
23.07.2012 16,7 C 70 % 1025,5 hPa 0,0 l/m 0,3 km/h S-SO 12,58 h 3,8 UV-I 465 W/m 2,0 km/h
24.07.2012 21,1 C 61 % 1017,9 hPa 0,0 l/m 0,4 km/h SO 12,50 h 3,7 UV-I 470 W/m 2,8 km/h
25.07.2012 22,5 C 75 % 1014,0 hPa 0,0 l/m 0,8 km/h NW 12,58 h 3,5 UV-I 449 W/m 4,0 km/h
26.07.2012 21,4 C 78 % 1016,1 hPa 0,0 l/m 0,0 km/h N 10,42 h 3,0 UV-I 387 W/m 0,4 km/h
27.07.2012 21,6 C 82 % 1010,9 hPa 23,6 l/m 5,1 km/h S-SO 7,25 h 3,2 UV-I 376 W/m 15,7 km/h
28.07.2012 17,3 C 94 % 1007,7 hPa 0,4 l/m 1,3 km/h S 0,75 h 1,2 UV-I 110 W/m 4,4 km/h
29.07.2012 16,5 C 80 % 1011,9 hPa 0,2 l/m 0,4 km/h S-SW 5,50 h 3,0 UV-I 316 W/m 6,4 km/h
30.07.2012 13,3 C 80 % 1016,3 hPa 0,2 l/m 1,2 km/h S-SW 4,00 h 2,5 UV-I 281 W/m 4,8 km/h
31.07.2012 15,2 C 79 % 1017,8 hPa 0,0 l/m 0,5 km/h S-SW 3,25 h 2,5 UV-I 247 W/m 4,0 km/h
Min-Datum 22.07.12 24.07.12 14.07.12 20 Tage 01.07.12 - - - - 01.07.12
Min-Zeit 06:20 16:45 06:15 - 00:00 - - - - 00:00
Minimum 5,5 C 40 % 999,0 hPa - 0,0 km/h - - - - 0,0 km/h
Max-Datum 27.07.12 02.07.12 22.07.12 27.07.12 27.07.12 - 23.07.12 01.07.12 22.07.12 27.07.12
Max-Zeit 14:40 05:40 23:15 18:20 18:10 - 19:50 13:40 14:05 19:25
Maximum 30,2 C 98 % 1028,7 hPa 23,6 l/m 27,8 km/h
S-SO
- 12,50 h 8,9 UV-I 1227 W/m 54,7 km/h
S-SO
Durchschnitt 16,2 C 83 % 1014,0 hPa #125,2 l/m 1,7 km/h S #150:35 h 2,5 UV-I 273 W/m 6,8 km/h

Durchschnitt Minimum Temp.11,5 C
Durchschnitt Maximum Temp.21,0 C